Time;durP1;ratioP1;P1;durP2;ratioP2;P2;SDS_P1;SDS_P2;PMS_P1;PMS_P2;Temp;Humidity;BMP_temperature;BMP_pressure;BME280_temperature;BME280_humidity;BME280_pressure;Samples;Min_cycle;Max_cycle;Signal;HPM_P1;HPM_P2
2022/11/05 00:10:22;;;;;;;20.27;11.10;;;;;;;5.18;73.80;100729.56;1754233;80;21141;-64
2022/11/05 00:18:20;;;;;;;15.75;8.53;;;;;;;5.25;74.27;100723.09;1756938;80;21027;-65
2022/11/05 00:20:46;;;;;;;28.47;19.82;;;;;;;5.34;74.84;100720.45;1763621;80;21066;-65
2022/11/05 00:26:01;;;;;;;22.75;16.30;;;;;;;5.57;74.95;100717.45;1763646;80;21654;-65
2022/11/05 00:28:29;;;;;;;12.95;7.00;;;;;;;5.64;75.24;100719.75;1750885;80;21046;-65
2022/11/05 00:31:05;;;;;;;28.73;15.32;;;;;;;5.67;75.60;100719.11;1763647;80;21043;-65
2022/11/05 00:33:31;;;;;;;;;;;;;;;5.74;75.81;100722.23;1757435;80;22329;-64
2022/11/05 00:35:58;;;;;;;12.07;6.00;;;;;;;5.85;75.74;100718.59;1758864;80;21257;-64
2022/11/05 00:38:24;;;;;;;37.20;15.58;;;;;;;5.93;75.88;100718.14;1754647;80;21055;-64
2022/11/05 00:40:52;;;;;;;41.25;15.78;;;;;;;5.99;76.00;100710.02;1764036;80;21063;-64
2022/11/05 00:46:04;;;;;;;12.05;6.90;;;;;;;5.96;76.22;100712.78;1762950;80;21095;-65
2022/11/05 00:51:16;;;;;;;31.52;14.50;;;;;;;5.97;76.05;100719.70;1771524;80;21070;-65
2022/11/05 00:53:42;;;;;;;22.77;16.23;;;;;;;5.99;76.19;100711.31;1781480;80;21042;-65
2022/11/05 00:56:09;;;;;;;17.20;7.87;;;;;;;5.99;76.45;100719.16;1770308;80;21063;-65
2022/11/05 00:58:36;;;;;;;18.60;8.98;;;;;;;5.97;76.50;100717.53;1762766;80;21099;-64
2022/11/05 01:01:03;;;;;;;42.53;20.90;;;;;;;5.94;76.65;100718.53;1762492;80;21227;-65
2022/11/05 01:03:34;;;;;;;31.52;19.62;;;;;;;5.99;76.58;100719.16;1755570;80;21072;-65
2022/11/05 01:06:12;;;;;;;27.35;18.42;;;;;;;6.03;76.24;100717.20;1719599;82;22024;-65
2022/11/05 01:08:39;;;;;;;29.32;18.95;;;;;;;6.00;76.11;100716.93;1752218;80;21054;-65
2022/11/05 01:11:33;;;;;;;34.10;19.98;;;;;;;5.94;75.99;100721.98;1761563;80;21161;-65
2022/11/05 01:14:07;;;;;;;23.22;18.75;;;;;;;5.86;76.02;100724.64;1757236;80;21205;-65
2022/11/05 01:16:35;;;;;;;27.15;17.70;;;;;;;5.79;76.15;100729.83;1761174;80;21505;-65
2022/11/05 01:19:02;;;;;;;23.30;17.62;;;;;;;5.81;76.24;100724.88;1754153;80;21049;-64
2022/11/05 01:21:30;;;;;;;26.87;18.82;;;;;;;5.87;76.08;100730.25;1755590;80;21023;-64
2022/11/05 01:23:56;;;;;;;23.57;17.70;;;;;;;5.91;75.96;100733.90;1755505;80;21018;-64
2022/11/05 01:26:23;;;;;;;30.55;19.67;;;;;;;5.90;75.96;100730.92;1757903;80;21234;-64
2022/11/05 01:28:54;;;;;;;29.12;19.15;;;;;;;5.88;75.87;100723.61;1751931;80;21130;-64
2022/11/05 01:31:20;;;;;;;26.45;18.82;;;;;;;5.92;75.90;100721.70;1758923;80;21092;-64
2022/11/05 01:33:47;;;;;;;23.65;17.73;;;;;;;5.94;75.97;100718.06;1759023;80;20999;-64
2022/11/05 01:36:15;;;;;;;25.52;19.42;;;;;;;6.01;75.94;100722.52;1756949;80;21499;-64
2022/11/05 01:38:42;;;;;;;24.30;17.45;;;;;;;6.09;75.87;100724.23;1755295;80;21240;-64
2022/11/05 01:41:09;;;;;;;22.67;15.35;;;;;;;6.11;75.72;100721.07;1761970;80;21046;-64
2022/11/05 01:43:48;;;;;;;14.00;6.33;;;;;;;6.11;75.94;100722.38;1760403;80;21000;-64
2022/11/05 01:46:18;;;;;;;17.27;10.43;;;;;;;6.18;76.58;100723.35;1757928;80;21058;-64
2022/11/05 01:48:45;;;;;;;15.23;10.85;;;;;;;6.25;76.73;100719.45;1752199;80;21396;-64
2022/11/05 01:51:13;;;;;;;14.93;10.03;;;;;;;6.36;76.58;100728.02;1717253;80;21256;-64
2022/11/05 01:53:55;;;;;;;12.90;10.03;;;;;;;6.45;76.53;100735.31;1756272;80;21059;-64
2022/11/05 01:56:27;;;;;;;15.20;10.08;;;;;;;6.52;76.47;100731.41;1758216;80;21016;-64
2022/11/05 01:58:58;;;;;;;15.38;11.10;;;;;;;6.49;76.56;100731.14;1758050;80;21063;-63
2022/11/05 02:01:24;;;;;;;13.72;10.80;;;;;;;6.45;76.66;100728.30;1763444;80;21031;-64
2022/11/05 02:03:54;;;;;;;9.53;4.35;;;;;;;6.50;76.72;100736.72;1759797;80;21312;-64
2022/11/05 02:06:20;;;;;;;14.23;10.53;;;;;;;6.55;76.35;100736.94;1761203;80;21047;-63
2022/11/05 02:09:02;;;;;;;15.60;10.88;;;;;;;6.56;76.33;100734.23;1754134;80;21059;-64
2022/11/05 02:11:28;;;;;;;22.25;11.48;;;;;;;6.56;76.27;100730.80;1761071;80;21062;-64
2022/11/05 02:13:56;;;;;;;35.00;12.53;;;;;;;6.50;76.39;100732.80;1752880;80;21545;-64
2022/11/05 02:16:45;;;;;;;18.00;11.00;;;;;;;6.48;76.58;100733.36;1755085;80;22063;-64
2022/11/05 02:19:41;;;;;;;13.95;10.25;;;;;;;6.46;76.53;100732.61;1751671;80;21080;-64
2022/11/05 02:22:39;;;;;;;19.82;10.72;;;;;;;6.50;76.38;100722.81;1754951;80;21105;-64
2022/11/05 02:25:41;;;;;;;35.78;12.50;;;;;;;6.51;76.20;100732.36;1752739;80;21094;-64
2022/11/05 02:28:31;;;;;;;28.25;12.60;;;;;;;6.46;76.16;100729.16;1750502;82;21039;-63
2022/11/05 02:31:06;;;;;;;25.37;12.25;;;;;;;6.37;76.35;100732.29;1751485;80;21149;-63
2022/11/05 02:34:05;;;;;;;20.23;11.57;;;;;;;6.26;76.42;100731.60;1750527;80;21098;-63
2022/11/05 02:36:46;;;;;;;9.05;4.62;;;;;;;6.20;76.48;100735.86;1763553;80;21046;-64
2022/11/05 02:39:44;;;;;;;10.45;5.22;;;;;;;6.22;76.35;100741.39;1757230;80;21123;-64
2022/11/05 02:42:36;;;;;;;11.75;5.72;;;;;;;6.25;76.45;100733.35;1733386;82;21052;-64
2022/11/05 02:45:08;;;;;;;28.07;12.70;;;;;;;6.20;76.43;100722.79;1700456;83;21282;-64
2022/11/05 02:47:44;;;;;;;30.32;12.82;;;;;;;6.09;76.62;100711.66;1760932;80;21092;-64
2022/11/05 02:50:56;;;;;;;21.62;12.43;;;;;;;6.08;76.56;100723.02;1739010;80;21094;-64
2022/11/05 02:53:48;;;;;;;18.17;12.70;;;;;;;6.06;76.39;100721.80;1738350;80;21055;-64
2022/11/05 02:56:25;;;;;;;27.50;13.70;;;;;;;6.03;76.40;100724.57;1763090;80;21062;-65
2022/11/05 02:58:52;;;;;;;10.68;6.25;;;;;;;5.95;76.67;100722.38;1756014;80;21201;-64
2022/11/05 03:01:20;;;;;;;21.77;13.38;;;;;;;5.92;76.93;100733.45;1756872;80;21067;-64
2022/11/05 03:03:51;;;;;;;26.15;12.88;;;;;;;5.92;77.03;100738.68;1760602;80;21811;-64
2022/11/05 03:06:44;;;;;;;11.48;5.60;;;;;;;5.97;76.81;100738.44;1757196;80;21094;-64
2022/11/05 03:10:01;;;;;;;19.25;12.68;;;;;;;6.02;76.77;100739.02;1760413;80;21011;-64
2022/11/05 03:12:42;;;;;;;10.23;5.10;;;;;;;6.00;76.67;100730.44;1759371;80;21267;-63
2022/11/05 03:15:51;;;;;;;20.60;12.65;;;;;;;5.95;76.94;100734.56;1750029;80;21140;-64
2022/11/05 03:18:48;;;;;;;14.20;6.25;;;;;;;5.91;77.12;100734.37;1725132;82;21084;-65
2022/11/05 03:21:42;;;;;;;11.43;6.03;;;;;;;5.92;77.11;100741.29;1756654;80;21038;-64
2022/11/05 03:24:14;;;;;;;24.43;14.58;;;;;;;5.97;77.08;100748.88;1750833;80;21053;-65
2022/11/05 03:27:01;;;;;;;10.68;5.53;;;;;;;5.99;77.05;100751.80;1756165;80;21138;-65
2022/11/05 03:29:36;;;;;;;20.82;7.22;;;;;;;5.96;77.35;100757.19;1758937;80;21038;-65
2022/11/05 03:32:04;;;;;;;13.88;5.97;;;;;;;5.95;77.59;100757.63;1732980;81;21150;-65
2022/11/05 03:34:37;;;;;;;18.40;13.38;;;;;;;5.95;77.76;100756.77;1758155;80;21544;-64
2022/11/05 03:37:04;;;;;;;19.67;15.10;;;;;;;6.00;77.67;100760.03;1703831;83;21052;-65
2022/11/05 03:39:41;;;;;;;22.82;14.20;;;;;;;6.08;77.55;100762.20;1695696;83;22332;-64
2022/11/05 03:42:11;;;;;;;23.57;15.18;;;;;;;6.12;77.42;100759.34;1767455;80;20999;-64
2022/11/05 03:44:40;;;;;;;27.13;15.53;;;;;;;6.11;77.34;100757.65;1732114;81;21662;-65
2022/11/05 03:47:12;;;;;;;27.30;15.80;;;;;;;6.09;77.36;100759.98;1768982;80;21062;-65
2022/11/05 03:50:19;;;;;;;22.32;13.55;;;;;;;6.04;77.03;100755.00;1705301;83;21518;-65
2022/11/05 03:52:52;;;;;;;11.48;5.17;;;;;;;6.05;76.71;100760.62;1762819;80;21222;-65
2022/11/05 03:55:24;;;;;;;24.47;14.03;;;;;;;6.03;76.73;100766.37;1689703;82;21102;-65
2022/11/05 03:57:51;;;;;;;28.23;15.32;;;;;;;6.00;76.91;100768.31;1760662;80;21030;-66
2022/11/05 04:00:17;;;;;;;23.10;14.53;;;;;;;5.96;76.97;100765.03;1755009;80;21496;-65
2022/11/05 04:02:44;;;;;;;14.73;6.50;;;;;;;5.93;76.77;100766.47;1758777;80;21065;-65
2022/11/05 04:05:11;;;;;;;30.45;15.15;;;;;;;5.95;76.55;100768.52;1769671;80;21196;-63
2022/11/05 04:13:25;;;;;;;13.88;7.00;;;;;;;5.87;76.62;100774.66;1757656;80;21588;-65
2022/11/05 04:18:38;;;;;;;13.08;5.80;;;;;;;5.73;76.84;100769.70;1693107;83;21134;-65
2022/11/05 04:24:08;;;;;;;10.83;5.10;;;;;;;5.79;76.85;100772.44;1757859;80;21055;-65
2022/11/05 04:26:42;;;;;;;27.52;14.43;;;;;;;5.83;76.87;100777.03;1754499;80;21071;-64
2022/11/05 04:31:54;;;;;;;16.40;8.15;;;;;;;5.79;77.32;100782.05;1755304;80;21875;-64
2022/11/05 04:34:21;;;;;;;32.33;14.15;;;;;;;5.80;77.37;100778.50;1742297;82;21032;-64
2022/11/05 04:36:49;;;;;;;27.95;14.07;;;;;;;5.83;77.11;100790.09;1746426;80;21016;-64
2022/11/05 04:39:17;;;;;;;25.23;14.20;;;;;;;5.86;77.13;100784.23;1755409;80;21048;-65
2022/11/05 04:41:47;;;;;;;19.95;13.25;;;;;;;5.88;77.17;100795.44;1753202;80;21063;-64
2022/11/05 04:44:15;;;;;;;19.15;13.13;;;;;;;5.85;77.33;100797.38;1750683;80;21258;-65
2022/11/05 04:46:41;;;;;;;19.27;11.20;;;;;;;5.84;77.62;100800.93;1750239;80;21599;-64
2022/11/05 04:49:08;;;;;;;13.15;10.43;;;;;;;5.88;77.84;100810.27;1744721;80;21603;-64
2022/11/05 04:51:35;;;;;;;13.55;10.13;;;;;;;6.00;77.77;100814.02;1750778;80;21548;-63
2022/11/05 04:54:02;;;;;;;14.68;10.23;;;;;;;6.06;77.69;100821.55;1761108;80;21090;-64
2022/11/05 04:56:30;;;;;;;14.20;10.45;;;;;;;6.09;77.74;100825.30;1754815;80;21201;-63
2022/11/05 05:00:48;;;;;;;8.90;3.87;;;;;;;5.98;78.56;100825.03;1794301;78;22543;-63
2022/11/05 05:03:15;;;;;;;12.55;9.53;;;;;;;6.12;77.61;100831.20;1768901;80;21030;-64
2022/11/05 05:05:43;;;;;;;13.88;10.15;;;;;;;6.20;77.16;100842.52;1764497;80;21026;-63
2022/11/05 05:08:09;;;;;;;13.83;9.78;;;;;;;6.20;77.00;100839.91;1759350;80;21102;-63
2022/11/05 05:10:36;;;;;;;13.38;9.80;;;;;;;6.17;77.08;100845.77;1778926;80;20989;-64
2022/11/05 05:13:02;;;;;;;12.45;10.32;;;;;;;6.16;77.00;100848.02;1780709;80;21085;-63
2022/11/05 05:15:29;;;;;;;16.45;10.45;;;;;;;6.10;77.05;100845.25;1779484;80;20990;-62
2022/11/05 05:17:57;;;;;;;10.70;6.00;;;;;;;6.10;76.89;100851.34;1777422;80;20997;-63
2022/11/05 05:23:09;;;;;;;16.93;7.77;;;;;;;6.17;76.61;100858.83;1777699;80;21022;-62
2022/11/05 05:25:36;;;;;;;15.30;9.70;;;;;;;6.16;76.70;100861.09;1774467;80;21100;-62
2022/11/05 05:28:03;;;;;;;20.20;9.73;;;;;;;6.12;76.66;100861.25;1769144;80;21026;-62
2022/11/05 05:30:31;;;;;;;11.03;5.22;;;;;;;6.06;76.56;100860.73;1770191;80;21075;-63
2022/11/05 05:33:03;;;;;;;11.12;7.85;;;;;;;6.02;76.43;100863.11;1777645;80;21111;-62
2022/11/05 05:35:30;;;;;;;17.90;7.92;;;;;;;6.06;76.29;100865.48;1788158;79;21057;-64
2022/11/05 05:37:56;;;;;;;11.97;8.95;;;;;;;6.07;76.20;100868.93;1760459;80;21067;-64
2022/11/05 05:40:23;;;;;;;8.88;4.20;;;;;;;6.05;76.27;100868.17;1759898;80;20987;-64
2022/11/05 05:42:54;;;;;;;13.35;8.53;;;;;;;6.02;76.44;100863.97;1756099;81;21307;-64
2022/11/05 05:45:22;;;;;;;11.03;7.90;;;;;;;6.01;76.57;100866.66;1761430;80;21062;-64
2022/11/05 05:47:49;;;;;;;11.85;8.00;;;;;;;6.02;76.34;100867.03;1763016;80;20987;-64
2022/11/05 05:50:16;;;;;;;16.70;8.80;;;;;;;6.06;76.09;100867.27;1770735;80;21540;-64
2022/11/05 05:52:42;;;;;;;15.43;8.15;;;;;;;6.06;75.96;100867.27;1777081;80;21007;-64
2022/11/05 05:55:11;;;;;;;11.00;7.87;;;;;;;6.05;76.05;100869.48;1720317;82;21235;-64
2022/11/05 05:57:37;;;;;;;7.12;2.92;;;;;;;6.04;76.19;100873.88;1694164;84;21134;-64
2022/11/05 06:00:06;;;;;;;10.65;7.85;;;;;;;6.04;76.19;100876.48;1694402;83;21048;-64
2022/11/05 06:02:34;;;;;;;12.13;8.08;;;;;;;6.06;75.89;100886.38;1746165;82;21051;-64
2022/11/05 06:05:01;;;;;;;9.78;7.62;;;;;;;6.06;75.90;100890.30;1746766;82;21047;-64
2022/11/05 06:07:28;;;;;;;11.88;8.25;;;;;;;6.08;75.89;100887.14;1743919;82;21173;-63
2022/11/05 06:10:54;;;;;;;11.85;8.03;;;;;;;5.99;76.74;100900.70;1789335;78;23645;-60
2022/11/05 06:13:20;;;;;;;14.95;9.70;;;;;;;6.18;76.45;100894.50;1779134;78;21065;-61
2022/11/05 06:18:01;;;;;;;12.53;8.00;;;;;;;6.25;76.34;100905.00;1764835;76;23282;-50
2022/11/05 06:20:27;;;;;;;15.70;9.50;;;;;;;6.33;75.71;100909.36;1742308;81;21100;-51
2022/11/05 06:22:57;;;;;;;16.10;9.50;;;;;;;6.40;75.62;100915.09;1749036;81;21134;-50
2022/11/05 06:25:24;;;;;;;15.10;10.20;;;;;;;6.40;75.49;100920.33;1748229;80;21555;-50
2022/11/05 06:27:52;;;;;;;13.68;9.13;;;;;;;6.38;75.35;100930.03;1752562;80;20958;-50
2022/11/05 06:30:20;;;;;;;10.30;5.20;;;;;;;6.37;75.16;100929.63;1714179;83;21812;-50
2022/11/05 06:32:47;;;;;;;14.40;8.98;;;;;;;6.38;75.09;100920.88;1742445;80;20918;-51
2022/11/05 06:35:13;;;;;;;13.25;8.23;;;;;;;6.41;75.18;100919.41;1748312;80;21166;-50
2022/11/05 06:37:40;;;;;;;24.45;9.65;;;;;;;6.38;75.17;100926.94;1749410;80;20971;-50
2022/11/05 06:40:08;;;;;;;14.35;8.38;;;;;;;6.33;75.38;100928.95;1745241;80;20982;-50
2022/11/05 06:42:34;;;;;;;29.27;9.30;;;;;;;6.30;75.57;100927.38;1740933;80;21460;-50
2022/11/05 06:45:01;;;;;;;17.50;9.35;;;;;;;6.33;75.61;100921.12;1733333;80;21029;-50
2022/11/05 06:47:27;;;;;;;21.37;9.03;;;;;;;6.40;75.72;100923.77;1741369;80;21200;-51
2022/11/05 06:49:56;;;;;;;16.85;9.40;;;;;;;6.44;76.01;100923.14;1747585;80;21044;-50
2022/11/05 06:52:22;;;;;;;20.43;9.28;;;;;;;6.44;76.34;100925.75;1747431;80;21009;-50
2022/11/05 06:54:49;;;;;;;11.33;7.83;;;;;;;6.49;76.60;100931.14;1756706;80;21480;-50
2022/11/05 06:57:15;;;;;;;25.00;9.20;;;;;;;6.55;76.52;100931.25;1734698;80;21615;-50
2022/11/05 06:59:43;;;;;;;13.50;8.73;;;;;;;6.60;76.68;100940.16;1720721;80;21104;-50
2022/11/05 07:02:12;;;;;;;17.00;9.53;;;;;;;6.63;77.06;100943.92;1751902;80;21009;-50
2022/11/05 07:04:39;;;;;;;18.55;8.65;;;;;;;6.65;77.47;100942.89;1734410;80;21029;-50
2022/11/05 07:07:06;;;;;;;9.65;4.72;;;;;;;6.75;77.70;100947.16;1730323;80;21063;-50
2022/11/05 07:09:39;;;;;;;13.10;9.30;;;;;;;6.85;77.40;100960.59;1745506;80;21037;-50
2022/11/05 07:12:06;;;;;;;19.27;9.68;;;;;;;6.92;77.27;100957.17;1755350;80;21541;-50
2022/11/05 07:14:34;;;;;;;14.90;9.88;;;;;;;6.94;77.28;100960.53;1772656;80;20971;-50
2022/11/05 07:17:00;;;;;;;14.58;9.68;;;;;;;6.92;77.35;100967.62;1740873;80;21024;-50
2022/11/05 07:19:27;;;;;;;16.02;9.65;;;;;;;6.93;77.55;100964.09;1744015;80;21057;-52
2022/11/05 07:21:54;;;;;;;15.10;9.48;;;;;;;6.95;77.46;100963.06;1744549;80;21047;-50
2022/11/05 07:24:21;;;;;;;17.48;9.83;;;;;;;7.01;77.45;100962.73;1740113;81;21124;-50
2022/11/05 07:26:48;;;;;;;14.90;9.48;;;;;;;7.10;77.46;100956.14;1747294;81;21073;-50
2022/11/05 07:29:15;;;;;;;16.05;9.75;;;;;;;7.13;77.41;100955.97;1749642;80;21004;-50
2022/11/05 07:31:41;;;;;;;13.58;10.05;;;;;;;7.17;77.53;100948.78;1746930;81;21121;-51
2022/11/05 07:34:08;;;;;;;16.52;10.80;;;;;;;7.21;77.66;100949.84;1722332;81;21065;-50
2022/11/05 07:36:38;;;;;;;13.90;9.30;;;;;;;7.27;77.69;100946.02;1745900;80;21256;-50
2022/11/05 07:39:03;;;;;;;17.10;10.25;;;;;;;7.40;77.62;100950.09;1697471;84;21011;-51
2022/11/05 07:41:29;;;;;;;14.40;11.03;;;;;;;7.51;77.53;100952.08;1755245;79;21058;-51
2022/11/05 07:43:56;;;;;;;18.92;11.55;;;;;;;7.56;77.57;100952.66;1763327;79;21038;-49
2022/11/05 07:46:23;;;;;;;16.52;11.38;;;;;;;7.59;77.64;100953.31;1765532;79;21056;-50
2022/11/05 07:48:49;;;;;;;17.65;11.50;;;;;;;7.61;77.84;100951.91;1758210;79;21901;-49
2022/11/05 07:51:16;;;;;;;14.60;11.22;;;;;;;7.67;77.80;100956.80;1775286;79;21500;-50
2022/11/05 07:53:43;;;;;;;15.18;11.35;;;;;;;7.76;77.66;100959.34;1747290;80;20977;-50
2022/11/05 07:56:11;;;;;;;16.82;12.30;;;;;;;7.83;77.66;100961.13;1747297;79;21077;-51
2022/11/05 07:58:37;;;;;;;15.48;11.85;;;;;;;7.90;77.77;100954.59;1750994;80;21036;-50
2022/11/05 08:01:05;;;;;;;16.65;12.53;;;;;;;7.92;77.92;100955.36;1762905;79;21238;-50
2022/11/05 08:03:34;;;;;;;15.95;11.88;;;;;;;7.94;77.89;100958.25;1762884;81;21064;-50
2022/11/05 08:06:00;;;;;;;15.48;11.60;;;;;;;7.91;78.15;100958.43;1763831;79;20978;-50
2022/11/05 08:08:27;;;;;;;16.95;12.75;;;;;;;8.02;77.87;100961.73;1763155;80;21302;-50
2022/11/05 08:10:53;;;;;;;17.23;12.98;;;;;;;8.14;77.43;100970.16;1757658;79;21079;-51
2022/11/05 08:13:20;;;;;;;18.00;13.55;;;;;;;8.12;77.40;100965.93;1729393;81;21144;-51
2022/11/05 08:15:46;;;;;;;18.48;13.15;;;;;;;8.10;77.54;100969.12;1757393;79;21021;-53
2022/11/05 08:18:15;;;;;;;18.48;12.73;;;;;;;8.07;77.83;100964.92;1756785;80;21000;-50
2022/11/05 08:20:43;;;;;;;17.80;12.75;;;;;;;8.09;78.02;100964.35;1734609;81;21034;-50
2022/11/05 08:23:11;;;;;;;19.60;13.55;;;;;;;8.23;77.92;100963.51;1744186;81;21055;-53
2022/11/05 08:25:38;;;;;;;18.65;13.35;;;;;;;8.38;77.54;100973.53;1744693;80;21117;-51
2022/11/05 08:28:07;;;;;;;17.73;12.60;;;;;;;8.43;77.59;100979.37;1748970;80;21015;-50
2022/11/05 08:30:34;;;;;;;17.80;12.70;;;;;;;8.44;77.50;100972.33;1740476;80;21542;-50
2022/11/05 08:33:07;;;;;;;19.65;13.15;;;;;;;8.48;77.33;100969.91;1744966;80;21117;-50
2022/11/05 08:35:34;;;;;;;17.85;13.45;;;;;;;8.55;77.18;100975.14;1744055;80;21101;-50
2022/11/05 08:38:03;;;;;;;17.35;12.40;;;;;;;8.63;77.24;100986.00;1744962;81;21224;-50
2022/11/05 08:40:31;;;;;;;21.73;14.80;;;;;;;8.64;77.17;100989.02;1738795;80;21053;-50
2022/11/05 08:43:01;;;;;;;19.02;13.98;;;;;;;8.65;77.21;100993.78;1745153;81;21050;-50
2022/11/05 08:45:28;;;;;;;17.57;13.05;;;;;;;8.65;76.97;100998.55;1744624;80;21062;-50
2022/11/05 08:48:04;;;;;;;18.50;14.03;;;;;;;8.70;76.78;101010.08;1750823;80;21564;-51
2022/11/05 08:50:31;;;;;;;19.92;14.40;;;;;;;8.73;76.67;101003.33;1750273;80;21684;-50
2022/11/05 08:52:57;;;;;;;20.20;13.85;;;;;;;8.72;76.73;101003.81;1750450;80;21007;-52
2022/11/05 08:55:24;;;;;;;17.80;13.40;;;;;;;8.72;76.91;101001.19;1745018;80;21102;-50
2022/11/05 08:58:00;;;;;;;17.25;12.93;;;;;;;8.76;76.89;101000.52;1745026;81;21055;-50
2022/11/05 09:00:28;;;;;;;16.15;12.68;;;;;;;8.87;76.79;100999.84;1743859;80;21493;-50
2022/11/05 09:03:02;;;;;;;20.20;13.88;;;;;;;8.99;76.77;101003.47;1740728;80;21084;-50
2022/11/05 09:05:30;;;;;;;19.17;12.65;;;;;;;9.05;76.58;101009.17;1721514;80;21015;-50
2022/11/05 09:08:00;;;;;;;16.52;12.85;;;;;;;9.05;76.57;101003.92;1750236;81;21046;-50
2022/11/05 09:10:27;;;;;;;18.20;13.30;;;;;;;9.07;76.45;101001.20;1727888;81;21069;-50
2022/11/05 09:12:55;;;;;;;18.77;12.50;;;;;;;9.08;76.20;101000.27;1770673;80;21025;-52
2022/11/05 09:15:23;;;;;;;17.50;13.28;;;;;;;9.17;76.04;101004.09;1754862;80;21117;-50
2022/11/05 09:17:50;;;;;;;19.75;14.87;;;;;;;9.23;75.83;101002.36;1746612;80;21032;-50
2022/11/05 09:20:16;;;;;;;20.80;14.75;;;;;;;9.27;75.76;100998.12;1760914;79;21431;-50
2022/11/05 09:22:45;;;;;;;20.77;14.53;;;;;;;9.30;75.78;100997.94;1746265;80;22360;-50
2022/11/05 09:25:14;;;;;;;17.75;12.85;;;;;;;9.37;75.92;100997.55;1725239;83;21107;-50
2022/11/05 09:27:42;;;;;;;18.57;13.13;;;;;;;9.45;75.73;101003.14;1725406;82;21550;-50
2022/11/05 09:30:10;;;;;;;19.02;13.88;;;;;;;9.53;75.42;101007.43;1717530;81;21431;-50
2022/11/05 09:32:37;;;;;;;16.62;12.65;;;;;;;9.59;75.03;101003.06;1741195;81;21369;-50
2022/11/05 09:35:04;;;;;;;16.97;13.78;;;;;;;9.59;74.83;101008.80;1738446;81;21544;-49
2022/11/05 09:37:31;;;;;;;20.52;14.65;;;;;;;9.57;74.81;101015.95;1734479;81;21651;-50
2022/11/05 09:39:58;;;;;;;18.67;13.35;;;;;;;9.55;74.58;101017.36;1744943;80;21141;-50
2022/11/05 09:42:32;;;;;;;18.57;13.62;;;;;;;9.52;74.28;101017.55;1728022;82;21046;-50
2022/11/05 09:45:03;;;;;;;18.42;14.33;;;;;;;9.52;73.95;101014.09;1756298;79;21091;-51
2022/11/05 09:47:35;;;;;;;19.73;14.18;;;;;;;9.53;73.88;101019.70;1760986;80;21084;-50
2022/11/05 09:50:06;;;;;;;20.10;15.18;;;;;;;9.48;73.90;101017.37;1763103;79;21025;-54
2022/11/05 09:52:34;;;;;;;20.37;14.65;;;;;;;9.44;73.86;101014.10;1761796;79;21089;-50
2022/11/05 09:55:03;;;;;;;20.72;14.83;;;;;;;9.41;73.80;101010.36;1754428;79;21066;-49
2022/11/05 09:57:44;;;;;;;18.48;14.47;;;;;;;9.46;73.72;101014.00;1762206;80;21018;-49
2022/11/05 10:03:22;;;;;;;19.48;14.65;;;;;;;9.25;74.69;101014.94;1794521;78;23267;-69
2022/11/05 10:05:50;;;;;;;18.48;14.40;;;;;;;9.46;73.50;101016.63;1784390;78;21528;-69
2022/11/05 10:08:23;;;;;;;20.25;14.18;;;;;;;9.47;73.20;101019.16;1776634;80;21893;-68
2022/11/05 10:10:54;;;;;;;19.40;15.10;;;;;;;9.49;73.01;101022.52;1761576;80;20912;-69
2022/11/05 10:13:43;;;;;;;19.80;15.40;;;;;;;9.51;73.01;101021.59;1787674;80;20982;-68
2022/11/05 10:16:38;;;;;;;19.20;14.75;;;;;;;9.45;73.09;101026.30;1786843;80;20995;-69
2022/11/05 10:19:23;;;;;;;;;;;;;;;9.40;73.05;101032.81;1755912;80;21042;-68
2022/11/05 10:22:01;;;;;;;21.85;14.35;;;;;;;9.40;73.21;101032.33;1769098;80;20099;-68
2022/11/05 10:24:27;;;;;;;21.00;14.65;;;;;;;9.44;73.17;101031.66;1763520;80;21621;-69
2022/11/05 10:26:54;;;;;;;22.35;15.53;;;;;;;9.36;73.48;101033.45;1769718;80;21026;-68
2022/11/05 10:29:31;;;;;;;21.33;16.15;;;;;;;9.29;73.68;101034.31;1760703;80;21059;-68
2022/11/05 10:32:00;;;;;;;22.32;16.42;;;;;;;9.28;73.75;101024.77;1766862;80;21097;-69
2022/11/05 10:34:34;;;;;;;20.75;15.58;;;;;;;9.29;73.75;101023.81;1766092;80;21244;-69
2022/11/05 10:37:01;;;;;;;21.68;14.63;;;;;;;9.31;73.72;101015.84;1763943;78;21074;-69
2022/11/05 10:39:28;;;;;;;23.22;16.50;;;;;;;9.36;73.64;101005.05;1767693;80;21086;-68
2022/11/05 10:42:04;;;;;;;25.02;17.75;;;;;;;9.41;73.56;101010.36;1757108;80;21031;-68
2022/11/05 10:44:48;;;;;;;21.82;16.95;;;;;;;9.48;73.19;101009.03;1770719;80;21082;-69
2022/11/05 10:47:57;;;;;;;23.73;15.78;;;;;;;9.45;73.19;101009.71;1767533;80;21123;-69
2022/11/05 10:50:26;;;;;;;23.70;15.13;;;;;;;9.45;73.26;101018.42;1784284;80;21034;-69
2022/11/05 10:53:16;;;;;;;20.57;15.60;;;;;;;9.49;72.95;101027.77;1769318;80;21500;-69
2022/11/05 10:55:50;;;;;;;23.42;16.75;;;;;;;9.52;72.84;101028.06;1764723;80;21098;-69
2022/11/05 10:58:21;;;;;;;21.93;15.73;;;;;;;9.54;72.82;101029.28;1765617;80;21091;-69
2022/11/05 11:00:54;;;;;;;22.15;15.28;;;;;;;9.52;72.96;101037.73;1761207;78;21261;-69
2022/11/05 11:03:35;;;;;;;21.10;15.28;;;;;;;9.48;72.91;101043.19;1766464;80;21086;-69
2022/11/05 11:06:17;;;;;;;18.90;14.50;;;;;;;9.46;72.83;101038.95;1762203;80;22205;-68
2022/11/05 11:08:46;;;;;;;21.45;14.70;;;;;;;9.57;72.73;101040.42;1764107;80;21042;-67
2022/11/05 11:11:33;;;;;;;21.15;14.68;;;;;;;9.65;72.35;101043.40;1759118;80;21074;-69
2022/11/05 11:14:12;;;;;;;19.87;15.38;;;;;;;9.58;72.62;101041.26;1752179;80;21149;-69
2022/11/05 11:16:43;;;;;;;19.07;13.88;;;;;;;9.57;72.62;101036.97;1751565;80;21023;-68
2022/11/05 11:19:30;;;;;;;18.92;13.00;;;;;;;9.58;72.52;101030.30;1771750;80;21102;-68
2022/11/05 11:22:09;;;;;;;22.05;14.53;;;;;;;9.62;72.11;101029.63;1761566;80;21654;-67
2022/11/05 11:24:44;;;;;;;18.40;13.10;;;;;;;9.59;71.75;101038.53;1765636;80;21094;-68
2022/11/05 11:27:15;;;;;;;20.70;13.80;;;;;;;9.51;71.70;101036.04;1771852;80;21205;-68
2022/11/05 11:29:48;;;;;;;23.07;13.40;;;;;;;9.42;71.97;101047.52;1781446;80;21031;-68
2022/11/05 11:32:17;;;;;;;20.60;13.32;;;;;;;9.37;71.92;101052.22;1745149;80;21027;-68
2022/11/05 11:34:44;;;;;;;18.82;13.15;;;;;;;9.38;71.89;101052.61;1764589;80;21156;-68
2022/11/05 11:37:19;;;;;;;19.48;14.10;;;;;;;9.40;71.92;101050.72;1767539;80;22813;-68
2022/11/05 12:34:47;;;;;;;30.85;20.02;;;;;;;7.14;82.53;101053.64;1796303;78;22762;-62
2022/11/05 12:37:49;;;;;;;23.80;16.75;;;;;;;7.39;80.90;101047.41;1766033;79;21276;-63
2022/11/05 12:40:40;;;;;;;15.40;6.80;;;;;;;7.63;80.05;101056.98;1786690;80;20959;-62
2022/11/05 12:43:39;;;;;;;22.37;14.53;;;;;;;7.90;79.34;101062.89;1789552;80;20990;-62
2022/11/05 12:46:47;;;;;;;21.17;15.10;;;;;;;8.12;78.44;101062.92;1736856;80;21247;-62
2022/11/05 12:50:02;;;;;;;15.08;6.53;;;;;;;8.28;77.89;101066.33;1767397;80;21008;-61
2022/11/05 12:53:04;;;;;;;23.85;13.53;;;;;;;8.31;77.85;101074.02;1726462;79;21081;-62
2022/11/05 12:55:38;;;;;;;21.55;14.30;;;;;;;8.39;77.28;101082.75;1772120;80;21249;-63
2022/11/05 12:58:22;;;;;;;20.95;14.07;;;;;;;8.50;76.71;101083.44;1756931;80;21062;-63
2022/11/05 13:00:53;;;;;;;25.17;14.47;;;;;;;8.61;76.38;101090.64;1779436;79;21384;-64
2022/11/05 13:03:47;;;;;;;21.00;15.05;;;;;;;8.67;75.84;101085.03;1764523;79;21035;-63
2022/11/05 13:06:18;;;;;;;18.27;13.48;;;;;;;8.68;75.61;101090.19;1734257;80;21088;-63
2022/11/05 13:09:03;;;;;;;21.23;14.10;;;;;;;8.69;75.48;101085.78;1717696;82;21786;-63
2022/11/05 13:11:58;;;;;;;19.50;13.20;;;;;;;8.71;75.26;101088.70;1703685;83;21171;-63
2022/11/05 13:14:32;;;;;;;20.45;13.88;;;;;;;8.79;74.87;101093.46;1710045;82;21022;-62
2022/11/05 13:17:05;;;;;;;21.10;14.95;;;;;;;8.86;74.74;101096.55;1701748;82;21082;-63
2022/11/05 13:20:02;;;;;;;18.85;13.50;;;;;;;8.86;74.61;101102.67;1700402;82;21600;-63
2022/11/05 13:22:40;;;;;;;19.10;14.23;;;;;;;8.80;74.77;101109.59;1700313;82;21125;-63
2022/11/05 13:25:27;;;;;;;19.73;13.40;;;;;;;8.80;74.77;101109.59;1699295;83;21529;-63
2022/11/05 13:28:24;;;;;;;19.02;12.82;;;;;;;8.91;74.57;101109.79;1691041;83;21039;-63
2022/11/05 13:30:52;;;;;;;;;;;;;;;8.98;73.85;101115.50;1710303;83;21578;-63